createdAt,value
2018-08-14T00:01:10.999Z,9.50
2018-08-14T00:03:38.547Z,10.07
2018-08-14T00:06:06.070Z,10.40
2018-08-14T00:08:33.588Z,9.30
2018-08-14T00:11:01.098Z,9.90
2018-08-14T00:13:28.551Z,10.50
2018-08-14T00:15:55.956Z,10.87
2018-08-14T00:18:23.419Z,12.00
2018-08-14T00:20:50.850Z,12.43
2018-08-14T00:23:18.623Z,12.10
2018-08-14T00:25:46.057Z,11.90
2018-08-14T00:28:13.514Z,11.77
2018-08-14T00:30:41.203Z,11.60
2018-08-14T00:33:08.682Z,12.87
2018-08-14T00:35:36.603Z,11.93
2018-08-14T00:38:05.148Z,13.63
2018-08-14T00:40:32.588Z,14.23
2018-08-14T00:43:02.424Z,14.97
2018-08-14T00:45:29.888Z,13.50
2018-08-14T00:47:57.380Z,14.00
2018-08-14T00:50:24.904Z,14.53
2018-08-14T00:52:52.424Z,14.30
2018-08-14T00:55:20.911Z,16.27
2018-08-14T00:57:49.157Z,14.60
2018-08-14T01:00:24.458Z,14.50
2018-08-14T01:02:52.658Z,15.20
2018-08-14T01:05:20.390Z,15.90
2018-08-14T01:07:48.097Z,14.70
2018-08-14T01:10:15.535Z,16.20
2018-08-14T01:12:46.350Z,16.37
2018-08-14T01:15:15.246Z,17.17
2018-08-14T01:17:43.347Z,17.13
2018-08-14T01:20:12.510Z,18.87
2018-08-14T01:22:40.115Z,20.60
2018-08-14T01:25:07.938Z,21.07
2018-08-14T01:27:35.598Z,21.30
2018-08-14T01:30:05.121Z,21.40
2018-08-14T01:32:32.513Z,22.93
2018-08-14T01:34:59.946Z,23.10
2018-08-14T01:37:27.349Z,24.30
2018-08-14T01:39:54.725Z,23.10
2018-08-14T01:42:22.602Z,23.60
2018-08-14T01:44:50.087Z,25.30
2018-08-14T01:47:17.524Z,25.00
2018-08-14T01:49:44.931Z,23.00
2018-08-14T01:52:12.382Z,23.30
2018-08-14T01:54:39.781Z,23.60
2018-08-14T01:57:07.194Z,22.60
2018-08-14T01:59:34.611Z,26.10
2018-08-14T02:02:02.071Z,24.17
2018-08-14T02:04:29.488Z,24.57
2018-08-14T02:06:56.925Z,24.50
2018-08-14T02:09:24.442Z,23.60
2018-08-14T02:11:51.830Z,23.00
2018-08-14T02:14:19.252Z,23.97
2018-08-14T02:16:46.648Z,23.87
2018-08-14T02:19:14.063Z,23.67
2018-08-14T02:21:41.461Z,25.63
2018-08-14T02:24:08.894Z,25.00
2018-08-14T02:26:36.274Z,24.13
2018-08-14T02:29:03.743Z,24.17
2018-08-14T02:31:31.103Z,23.20
2018-08-14T02:33:58.499Z,23.40
2018-08-14T02:36:25.957Z,25.13
2018-08-14T02:38:53.346Z,22.37
2018-08-14T02:41:20.786Z,24.27
2018-08-14T02:43:48.238Z,25.47
2018-08-14T02:46:15.678Z,24.27
2018-08-14T02:48:43.164Z,24.00
2018-08-14T02:51:10.660Z,24.30
2018-08-14T02:53:38.148Z,23.50
2018-08-14T02:56:05.596Z,24.70
2018-08-14T02:58:33.089Z,24.87
2018-08-14T03:01:00.560Z,24.30
2018-08-14T03:03:28.112Z,22.10
2018-08-14T03:05:55.636Z,24.40
2018-08-14T03:08:23.090Z,23.47
2018-08-14T03:10:50.549Z,23.97
2018-08-14T03:13:18.108Z,24.27
2018-08-14T03:15:45.539Z,23.73
2018-08-14T03:18:13.012Z,23.43
2018-08-14T03:20:40.440Z,23.63
2018-08-14T03:23:08.857Z,23.10
2018-08-14T03:25:36.539Z,24.00
2018-08-14T03:28:04.047Z,24.37
2018-08-14T03:30:31.634Z,24.03
2018-08-14T03:32:59.099Z,22.50
2018-08-14T03:35:26.538Z,23.13
2018-08-14T03:37:54.004Z,22.07
2018-08-14T03:40:21.766Z,23.63
2018-08-14T03:42:49.618Z,24.50
2018-08-14T03:45:17.407Z,22.50
2018-08-14T03:47:45.266Z,21.80
2018-08-14T03:50:13.381Z,24.23
2018-08-14T03:52:41.508Z,23.77
2018-08-14T03:55:11.239Z,23.60
2018-08-14T03:57:38.851Z,22.80
2018-08-14T04:00:09.306Z,22.70
2018-08-14T04:02:36.962Z,21.87
2018-08-14T04:05:04.483Z,21.70
2018-08-14T04:07:31.900Z,21.27
2018-08-14T04:09:59.361Z,21.17
2018-08-14T04:12:26.829Z,21.60
2018-08-14T04:14:54.288Z,22.37
2018-08-14T04:17:21.727Z,23.63
2018-08-14T04:19:49.211Z,22.80
2018-08-14T04:22:16.600Z,23.03
2018-08-14T04:24:44.027Z,22.30
2018-08-14T04:27:11.455Z,22.30
2018-08-14T04:29:38.989Z,24.23
2018-08-14T04:32:06.786Z,25.07
2018-08-14T04:34:34.313Z,25.13
2018-08-14T04:37:01.760Z,25.33
2018-08-14T04:39:29.195Z,25.80
2018-08-14T04:41:56.608Z,24.67
2018-08-14T04:44:24.138Z,24.70
2018-08-14T04:46:51.538Z,25.43
2018-08-14T04:49:18.958Z,25.87
2018-08-14T04:51:46.389Z,26.00
2018-08-14T04:54:13.851Z,26.10
2018-08-14T04:56:41.680Z,28.23
2018-08-14T04:59:09.172Z,24.37
2018-08-14T05:01:36.643Z,28.90
2018-08-14T05:04:04.387Z,29.10
2018-08-14T05:06:31.867Z,26.67
2018-08-14T05:08:59.477Z,26.90
2018-08-14T05:11:26.846Z,25.90
2018-08-14T05:13:55.304Z,24.13
2018-08-14T05:16:22.734Z,25.83
2018-08-14T05:18:50.238Z,25.93
2018-08-14T05:21:17.654Z,24.80
2018-08-14T05:23:45.095Z,24.13
2018-08-14T05:26:12.555Z,23.37
2018-08-14T05:28:40.097Z,24.53
2018-08-14T05:31:07.510Z,23.77
2018-08-14T05:33:35.127Z,22.30
2018-08-14T05:36:02.509Z,23.50
2018-08-14T05:38:30.007Z,21.77
2018-08-14T05:40:57.469Z,22.97
2018-08-14T05:43:24.904Z,22.43
2018-08-14T05:45:52.396Z,23.03
2018-08-14T05:48:19.872Z,22.50
2018-08-14T05:50:47.291Z,23.30
2018-08-14T05:53:14.718Z,23.20
2018-08-14T05:55:42.155Z,21.27
2018-08-14T05:58:09.600Z,22.83
2018-08-14T06:00:37.100Z,20.47
2018-08-14T06:03:04.623Z,23.00
2018-08-14T06:05:32.088Z,23.00
2018-08-14T06:07:59.522Z,22.43
2018-08-14T06:10:27.032Z,24.50
2018-08-14T06:12:54.505Z,24.43
2018-08-14T06:15:21.976Z,22.03
2018-08-14T06:17:49.396Z,22.30
2018-08-14T06:20:16.827Z,23.20
2018-08-14T06:22:44.603Z,21.43
2018-08-14T06:25:12.297Z,21.50
2018-08-14T06:27:40.318Z,23.83
2018-08-14T06:30:12.328Z,23.90
2018-08-14T06:32:39.767Z,23.67
2018-08-14T06:35:07.233Z,22.87
2018-08-14T06:37:37.066Z,23.43
2018-08-14T06:40:07.008Z,23.90
2018-08-14T06:42:34.464Z,22.70
2018-08-14T06:45:01.913Z,23.10
2018-08-14T06:47:29.363Z,23.27
2018-08-14T06:49:56.828Z,23.03
2018-08-14T06:52:24.258Z,23.17
2018-08-14T06:54:51.736Z,21.43
2018-08-14T06:57:19.122Z,22.30
2018-08-14T06:59:46.638Z,22.00
2018-08-14T07:02:14.074Z,21.43
2018-08-14T07:04:41.556Z,21.30
2018-08-14T07:07:09.007Z,21.27
2018-08-14T07:09:36.589Z,21.97
2018-08-14T07:12:04.026Z,21.30
2018-08-14T07:14:31.483Z,23.70
2018-08-14T07:16:58.923Z,23.67
2018-08-14T07:19:26.423Z,21.80
2018-08-14T07:21:53.856Z,22.47
2018-08-14T07:24:21.321Z,21.10
2018-08-14T07:26:48.737Z,21.23
2018-08-14T07:29:16.180Z,20.47
2018-08-14T07:31:43.675Z,21.00
2018-08-14T07:34:11.089Z,20.50
2018-08-14T07:36:38.522Z,19.50
2018-08-14T07:39:07.583Z,20.67
2018-08-14T07:41:35.281Z,18.40
2018-08-14T07:44:02.736Z,18.47
2018-08-14T07:46:30.180Z,17.10
2018-08-14T07:48:57.713Z,18.10
2018-08-14T07:51:25.198Z,19.30
2018-08-14T07:53:52.626Z,19.23
2018-08-14T07:56:20.044Z,17.93
2018-08-14T07:58:47.532Z,17.13
2018-08-14T08:01:14.970Z,19.17
2018-08-14T08:03:42.744Z,18.43
2018-08-14T08:06:10.199Z,18.30
2018-08-14T08:08:37.660Z,18.13
2018-08-14T08:11:05.233Z,18.77
2018-08-14T08:13:32.688Z,17.40
2018-08-14T08:16:00.117Z,19.93
2018-08-14T08:18:27.693Z,20.57
2018-08-14T08:20:55.161Z,20.27
2018-08-14T08:23:22.564Z,18.70
2018-08-14T08:25:50.044Z,18.57
2018-08-14T08:28:17.452Z,18.40
2018-08-14T08:30:44.906Z,16.80
2018-08-14T08:33:12.337Z,17.57
2018-08-14T08:35:39.813Z,17.83
2018-08-14T08:38:07.263Z,17.20
2018-08-14T08:40:34.760Z,16.43
2018-08-14T08:43:02.220Z,16.57
2018-08-14T08:45:29.672Z,13.20
2018-08-14T08:48:08.857Z,14.30
2018-08-14T08:50:36.421Z,12.97
2018-08-14T08:53:03.868Z,12.77
2018-08-14T08:55:31.310Z,12.47
2018-08-14T08:57:58.875Z,11.77
2018-08-14T09:00:26.247Z,11.83
2018-08-14T09:02:53.710Z,11.90
2018-08-14T09:05:21.152Z,10.50
2018-08-14T09:07:48.623Z,12.33
2018-08-14T09:10:16.084Z,11.97
2018-08-14T09:12:43.592Z,11.83
2018-08-14T09:15:11.671Z,11.77
2018-08-14T09:17:40.400Z,11.37
2018-08-14T09:20:09.357Z,10.90
2018-08-14T09:22:36.823Z,9.77
2018-08-14T09:25:07.389Z,10.23
2018-08-14T09:27:34.851Z,11.20
2018-08-14T09:30:02.319Z,9.70
2018-08-14T09:32:29.830Z,10.27
2018-08-14T09:34:57.486Z,9.47
2018-08-14T09:37:24.919Z,8.80
2018-08-14T09:39:52.357Z,9.50
2018-08-14T09:42:19.862Z,9.23
2018-08-14T09:44:47.511Z,9.67
2018-08-14T09:47:15.082Z,9.87
2018-08-14T09:49:42.559Z,9.10
2018-08-14T09:52:10.031Z,8.50
2018-08-14T09:54:37.553Z,9.77
2018-08-14T09:57:05.093Z,7.53
2018-08-14T09:59:32.575Z,8.90
2018-08-14T10:02:05.678Z,8.47
2018-08-14T10:04:38.752Z,8.03
2018-08-14T10:07:12.127Z,8.50
2018-08-14T10:09:39.576Z,9.07
2018-08-14T10:12:07.156Z,8.63
2018-08-14T10:14:40.889Z,9.23
2018-08-14T10:17:12.253Z,10.10
2018-08-14T10:19:39.688Z,10.10
2018-08-14T10:22:07.633Z,10.53
2018-08-14T10:24:35.276Z,11.70
2018-08-14T10:27:02.745Z,11.90
2018-08-14T10:29:30.308Z,11.10
2018-08-14T10:31:57.764Z,11.07
2018-08-14T10:34:25.421Z,10.70
2018-08-14T10:36:53.804Z,10.40
2018-08-14T10:39:21.215Z,10.70
2018-08-14T10:41:48.826Z,11.90
2018-08-14T10:44:16.302Z,12.00
2018-08-14T10:46:43.843Z,12.17
2018-08-14T10:49:11.394Z,11.60
2018-08-14T10:51:38.954Z,12.90
2018-08-14T10:54:06.952Z,11.17
2018-08-14T10:56:34.426Z,14.27
2018-08-14T10:59:02.001Z,11.90
2018-08-14T11:01:29.498Z,11.50
2018-08-14T11:03:56.938Z,11.03
2018-08-14T11:06:24.408Z,10.40
2018-08-14T11:08:51.879Z,11.13
2018-08-14T11:11:20.071Z,10.83
2018-08-14T11:13:48.527Z,9.83
2018-08-14T11:16:16.093Z,10.10
2018-08-14T11:18:43.553Z,9.60
2018-08-14T11:21:10.996Z,9.27
2018-08-14T11:23:38.443Z,9.63
2018-08-14T11:26:05.878Z,9.73
2018-08-14T11:28:33.461Z,9.27
2018-08-14T11:31:01.023Z,10.87
2018-08-14T11:33:28.567Z,9.33
2018-08-14T11:36:01.792Z,10.10
2018-08-14T11:38:29.245Z,8.30
2018-08-14T11:40:56.679Z,8.13
2018-08-14T11:43:24.147Z,9.10
2018-08-14T11:45:51.581Z,7.37
2018-08-14T11:48:19.091Z,8.67
2018-08-14T11:50:46.501Z,7.63
2018-08-14T11:53:13.956Z,9.57
2018-08-14T11:55:41.394Z,8.43
2018-08-14T11:58:08.807Z,6.23
2018-08-14T12:00:36.239Z,6.73
2018-08-14T12:03:03.769Z,7.10
2018-08-14T12:05:31.198Z,7.37
2018-08-14T12:07:58.690Z,6.10
2018-08-14T12:10:26.109Z,6.47
2018-08-14T12:12:53.545Z,5.50
2018-08-14T12:15:21.013Z,5.23
2018-08-14T12:17:48.570Z,5.70
2018-08-14T12:20:17.494Z,5.40
2018-08-14T12:22:44.971Z,4.90
2018-08-14T12:25:13.851Z,5.47
2018-08-14T12:27:41.313Z,5.57
2018-08-14T12:30:11.644Z,5.90
2018-08-14T12:32:39.099Z,5.00
2018-08-14T12:35:07.235Z,5.43
2018-08-14T12:37:34.627Z,4.77
2018-08-14T12:40:02.152Z,3.30
2018-08-14T12:42:29.670Z,4.00
2018-08-14T12:44:57.148Z,4.60
2018-08-14T12:47:25.498Z,5.03
2018-08-14T12:49:52.970Z,5.50
2018-08-14T12:52:20.410Z,6.73
2018-08-14T12:54:48.160Z,6.73
2018-08-14T12:57:15.594Z,6.10
2018-08-14T12:59:43.043Z,7.93
2018-08-14T13:02:10.632Z,8.57
2018-08-14T13:04:38.607Z,8.00
2018-08-14T13:07:06.041Z,8.90
2018-08-14T13:09:33.575Z,8.57
2018-08-14T13:12:01.043Z,7.90
2018-08-14T13:14:28.527Z,7.17
2018-08-14T13:16:55.959Z,7.00
2018-08-14T13:19:23.415Z,6.17
2018-08-14T13:21:50.839Z,6.53
2018-08-14T13:24:18.438Z,5.57
2018-08-14T13:26:46.194Z,6.23
2018-08-14T13:29:13.706Z,5.80
2018-08-14T13:31:41.531Z,6.23
2018-08-14T13:34:09.082Z,5.90
2018-08-14T13:36:36.542Z,6.40
2018-08-14T13:39:06.226Z,6.77
2018-08-14T13:41:33.659Z,6.03
2018-08-14T13:44:01.120Z,6.33
2018-08-14T13:46:28.636Z,5.83
2018-08-14T13:48:56.122Z,6.20
2018-08-14T13:51:23.547Z,6.60
2018-08-14T13:53:51.020Z,7.17
2018-08-14T13:56:18.447Z,6.90
2018-08-14T13:58:45.964Z,7.10
2018-08-14T14:01:13.406Z,6.67
2018-08-14T14:03:40.865Z,5.13
2018-08-14T14:06:08.321Z,4.37
2018-08-14T14:08:35.873Z,4.23
2018-08-14T14:11:03.405Z,3.37
2018-08-14T14:13:30.888Z,3.97
2018-08-14T14:15:58.332Z,4.87
2018-08-14T14:18:25.819Z,4.87
2018-08-14T14:20:53.305Z,4.77
2018-08-14T14:23:20.790Z,5.13
2018-08-14T14:25:48.287Z,4.33
2018-08-14T14:28:15.742Z,4.20
2018-08-14T14:30:43.261Z,4.57
2018-08-14T14:33:10.647Z,4.53
2018-08-14T14:35:38.150Z,3.80
2018-08-14T14:38:05.567Z,3.60
2018-08-14T14:40:33.068Z,2.80
2018-08-14T14:43:01.765Z,3.00
2018-08-14T14:45:29.247Z,3.30
2018-08-14T14:47:56.693Z,3.60
2018-08-14T14:50:24.130Z,2.90
2018-08-14T14:52:51.597Z,2.70
2018-08-14T14:55:20.597Z,3.00
2018-08-14T14:57:48.144Z,3.27
2018-08-14T15:00:21.753Z,3.00
2018-08-14T15:02:50.759Z,2.77
2018-08-14T15:05:18.311Z,3.07
2018-08-14T15:07:46.843Z,2.70
2018-08-14T15:10:14.363Z,2.50
2018-08-14T15:12:42.407Z,2.50
2018-08-14T15:15:09.884Z,1.93
2018-08-14T15:17:38.338Z,2.40
2018-08-14T15:20:08.631Z,4.00
2018-08-14T15:22:36.216Z,2.50
2018-08-14T15:25:04.754Z,3.20
2018-08-14T15:27:32.318Z,2.90
2018-08-14T15:30:11.319Z,3.03
2018-08-14T15:32:38.737Z,3.10
2018-08-14T15:35:06.313Z,2.97
2018-08-14T15:37:33.735Z,2.90
2018-08-14T15:40:01.232Z,3.50
2018-08-14T15:42:28.636Z,4.53
2018-08-14T15:44:56.080Z,7.47
2018-08-14T15:47:23.480Z,6.47
2018-08-14T15:49:51.325Z,6.20
2018-08-14T15:52:18.732Z,8.53
2018-08-14T15:54:46.190Z,8.47
2018-08-14T15:57:13.616Z,8.53
2018-08-14T15:59:41.129Z,8.40
2018-08-14T16:02:08.565Z,7.70
2018-08-14T16:04:36.017Z,7.97
2018-08-14T16:07:03.520Z,8.60
2018-08-14T16:09:30.963Z,8.40
2018-08-14T16:11:58.507Z,7.63
2018-08-14T16:14:25.987Z,8.57
2018-08-14T16:16:53.455Z,8.10
2018-08-14T16:19:20.940Z,9.10
2018-08-14T16:21:48.331Z,7.50
2018-08-14T16:24:16.649Z,9.13
2018-08-14T16:26:44.114Z,9.13
2018-08-14T16:29:11.663Z,10.83
2018-08-14T16:31:39.153Z,9.97
2018-08-14T16:34:06.650Z,8.97
2018-08-14T16:36:34.288Z,9.03
2018-08-14T16:39:01.791Z,8.73
2018-08-14T16:41:29.312Z,9.17
2018-08-14T16:43:56.776Z,8.30
2018-08-14T16:46:24.252Z,7.93
2018-08-14T16:48:51.801Z,7.97
2018-08-14T16:51:19.255Z,8.33
2018-08-14T16:53:48.407Z,7.17
2018-08-14T16:56:15.927Z,12.77
2018-08-14T16:58:43.463Z,9.47
2018-08-14T17:01:10.958Z,7.50
2018-08-14T17:03:38.392Z,7.80
2018-08-14T17:06:05.990Z,6.50
2018-08-14T17:08:33.499Z,5.97
2018-08-14T17:11:00.954Z,6.50
2018-08-14T17:13:28.565Z,8.20
2018-08-14T17:15:56.123Z,8.40
2018-08-14T17:18:23.591Z,7.90
2018-08-14T17:20:50.066Z,7.63
2018-08-14T17:23:17.487Z,7.70
2018-08-14T17:25:44.921Z,7.50
2018-08-14T17:28:12.483Z,6.73
2018-08-14T17:30:39.930Z,6.53
2018-08-14T17:33:07.367Z,6.57
2018-08-14T17:35:34.863Z,6.03
2018-08-14T17:38:04.021Z,5.47
2018-08-14T17:40:31.510Z,4.63
2018-08-14T17:42:58.891Z,4.30
2018-08-14T17:45:29.454Z,4.50
2018-08-14T17:47:59.405Z,4.60
2018-08-14T17:50:28.213Z,4.83
2018-08-14T17:52:55.675Z,5.50
2018-08-14T17:55:23.738Z,5.07
2018-08-14T17:57:51.274Z,5.67
2018-08-14T18:00:23.977Z,4.93
2018-08-14T18:02:54.070Z,5.70
2018-08-14T18:05:21.557Z,5.43
2018-08-14T18:07:48.988Z,5.50
2018-08-14T18:10:18.727Z,5.50
2018-08-14T18:12:46.483Z,5.83
2018-08-14T18:15:14.943Z,6.03
2018-08-14T18:17:42.604Z,5.73
2018-08-14T18:20:28.239Z,5.70
2018-08-14T18:22:55.741Z,6.07
2018-08-14T18:25:24.127Z,5.93
2018-08-14T18:27:52.095Z,5.03
2018-08-14T18:30:20.346Z,5.67
2018-08-14T18:32:47.970Z,4.70
2018-08-14T18:35:15.770Z,4.33
2018-08-14T18:37:43.771Z,4.67
2018-08-14T18:40:13.243Z,3.60
2018-08-14T18:42:41.130Z,2.80
2018-08-14T18:45:10.511Z,3.03
2018-08-14T18:47:37.992Z,3.30
2018-08-14T18:50:06.656Z,2.57
2018-08-14T18:52:34.211Z,2.60
2018-08-14T18:55:01.661Z,2.73
2018-08-14T18:57:29.266Z,2.50
2018-08-14T18:59:56.716Z,3.23
2018-08-14T19:02:24.242Z,4.43
2018-08-14T19:04:52.053Z,2.77
2018-08-14T19:07:19.556Z,2.93
2018-08-14T19:09:47.050Z,3.10
2018-08-14T19:12:14.636Z,2.20
2018-08-14T19:14:42.139Z,3.20
2018-08-14T19:17:09.717Z,2.30
2018-08-14T19:19:37.143Z,2.87
2018-08-14T19:22:04.623Z,2.70
2018-08-14T19:24:32.079Z,2.93
2018-08-14T19:26:59.566Z,2.60
2018-08-14T19:29:27.051Z,2.77
2018-08-14T19:31:54.649Z,2.60
2018-08-14T19:34:22.147Z,2.97
2018-08-14T19:36:49.628Z,2.77
2018-08-14T19:39:17.232Z,2.83
2018-08-14T19:41:44.667Z,3.00
2018-08-14T19:44:12.956Z,2.90
2018-08-14T19:46:40.919Z,3.10
2018-08-14T19:49:08.350Z,2.90
2018-08-14T19:51:35.886Z,3.70
2018-08-14T19:54:03.374Z,3.40
2018-08-14T19:56:30.858Z,3.50
2018-08-14T19:58:58.336Z,3.23
2018-08-14T20:01:25.883Z,2.70
2018-08-14T20:03:53.309Z,2.90
2018-08-14T20:06:20.822Z,3.97
2018-08-14T20:08:48.324Z,3.13
2018-08-14T20:11:15.740Z,2.83
2018-08-14T20:13:43.253Z,2.50
2018-08-14T20:16:10.777Z,2.40
2018-08-14T20:18:39.756Z,2.23
2018-08-14T20:21:07.277Z,1.97
2018-08-14T20:23:35.489Z,3.30
2018-08-14T20:26:03.783Z,2.10
2018-08-14T20:28:31.899Z,5.00
2018-08-14T20:30:59.403Z,3.50
2018-08-14T20:33:27.023Z,3.20
2018-08-14T20:35:54.738Z,2.63
2018-08-14T20:38:22.156Z,2.20
2018-08-14T20:40:49.884Z,2.87
2018-08-14T20:43:17.443Z,3.00
2018-08-14T20:45:45.123Z,2.87
2018-08-14T20:48:12.830Z,4.43
2018-08-14T20:50:40.562Z,4.67
2018-08-14T20:53:08.104Z,3.50
2018-08-14T20:55:35.868Z,3.13
2018-08-14T20:58:03.631Z,2.53
2018-08-14T21:00:31.200Z,3.03
2018-08-14T21:02:58.570Z,2.43
2018-08-14T21:05:26.309Z,2.23
2018-08-14T21:07:54.003Z,3.03
2018-08-14T21:10:21.487Z,3.20
2018-08-14T21:12:49.004Z,2.97
2018-08-14T21:15:21.246Z,3.33
2018-08-14T21:17:48.721Z,3.60
2018-08-14T21:20:17.689Z,2.73
2018-08-14T21:22:45.901Z,3.30
2018-08-14T21:25:13.340Z,2.70
2018-08-14T21:27:40.796Z,4.60
2018-08-14T21:30:10.692Z,2.20
2018-08-14T21:32:38.088Z,4.43
2018-08-14T21:35:07.440Z,2.50
2018-08-14T21:37:35.024Z,2.77
2018-08-14T21:40:02.542Z,2.93
2018-08-14T21:42:29.999Z,2.30
2018-08-14T21:44:57.500Z,2.60
2018-08-14T21:47:24.900Z,4.53
2018-08-14T21:49:52.339Z,3.43
2018-08-14T21:52:19.776Z,2.30
2018-08-14T21:54:47.307Z,2.53
2018-08-14T21:57:14.816Z,2.43
2018-08-14T21:59:42.335Z,3.23
2018-08-14T22:02:09.822Z,4.87
2018-08-14T22:04:37.337Z,3.07
2018-08-14T22:07:04.747Z,2.97
2018-08-14T22:09:42.400Z,3.30
2018-08-14T22:12:09.866Z,4.43
2018-08-14T22:14:37.334Z,2.27
2018-08-14T22:17:04.859Z,3.33
2018-08-14T22:19:32.320Z,2.33
2018-08-14T22:21:59.829Z,2.03
2018-08-14T22:24:27.313Z,1.73
2018-08-14T22:26:54.777Z,1.50
2018-08-14T22:29:22.223Z,2.07
2018-08-14T22:31:49.679Z,1.40
2018-08-14T22:34:17.119Z,2.37
2018-08-14T22:36:44.575Z,2.50
2018-08-14T22:39:11.975Z,2.27
2018-08-14T22:41:39.431Z,3.10
2018-08-14T22:44:07.343Z,1.97
2018-08-14T22:46:34.965Z,2.13
2018-08-14T22:49:02.523Z,3.37
2018-08-14T22:51:29.960Z,2.57
2018-08-14T22:53:57.391Z,4.27
2018-08-14T22:56:24.796Z,2.80
2018-08-14T22:58:52.372Z,2.37
2018-08-14T23:01:19.771Z,3.10
2018-08-14T23:03:48.420Z,2.93
2018-08-14T23:06:15.839Z,3.87
2018-08-14T23:08:43.299Z,4.70
2018-08-14T23:11:10.706Z,2.77
2018-08-14T23:13:38.188Z,2.60
2018-08-14T23:16:05.733Z,2.90
2018-08-14T23:18:34.692Z,4.80
2018-08-14T23:21:02.143Z,2.57
2018-08-14T23:23:29.618Z,4.87
2018-08-14T23:25:57.136Z,4.30
2018-08-14T23:28:24.525Z,4.07
2018-08-14T23:30:51.980Z,3.73
2018-08-14T23:33:19.504Z,4.73
2018-08-14T23:35:46.956Z,3.87
2018-08-14T23:38:14.396Z,6.37
2018-08-14T23:40:41.858Z,4.60
2018-08-14T23:43:09.312Z,6.90
2018-08-14T23:45:36.831Z,6.20
2018-08-14T23:48:04.370Z,5.10
2018-08-14T23:50:31.838Z,4.97
2018-08-14T23:52:59.319Z,4.93
2018-08-14T23:55:27.098Z,6.60
2018-08-14T23:57:54.513Z,4.60
